GLO7670 SBFZ-SABE
Flight info
| Callsign | GLO7670 |
|---|---|
| Flight time | N/A |
| Altitude | 36000 |
| Route | ERUGU DCT LOMAK UM654 KABOP DCT SUBMU DCT NANDU DCT NIBSA DCT ISRIK DCT ESILO DCT GAVOM DCT EDMAR DCT UBLAM DCT DAYMA UL324 KUKEN |
| Aircraft | B738/M-SDFGIKLORWXY/LB1 |
Departure
| Time | 2026-04-27 11:35 |
|---|---|
| Airport | Pinto Martins International Airport (SBFZ) |
Arrival
| Time | N/A |
|---|---|
| Airport | Aeroparque Jorge Newbery (SABE) |
| Time | Latitude | Longitude | Altitude | Speed | Heading |
|---|---|---|---|---|---|
| 2026-04-27 11:20 | -3.77828 | -38.53925 | 90 ft | 0 kts | 218° |
| 2026-04-27 11:29 | -3.77816 | -38.53916 | 92 ft | 4 kts | 222° |
| 2026-04-27 11:30 | -3.77797 | -38.53897 | 90 ft | 4 kts | 234° |
| 2026-04-27 11:30 | -3.77786 | -38.53874 | 92 ft | 4 kts | 262° |
| 2026-04-27 11:30 | -3.77789 | -38.53854 | 91 ft | 1 kts | 307° |
| 2026-04-27 11:30 | -3.77791 | -38.53850 | 91 ft | 1 kts | 307° |
| 2026-04-27 11:32 | -3.77790 | -38.53851 | 91 ft | 1 kts | 307° |
| 2026-04-27 11:32 | -3.77772 | -38.53875 | 91 ft | 8 kts | 307° |
| 2026-04-27 11:32 | -3.77728 | -38.53943 | 94 ft | 15 kts | 299° |
| 2026-04-27 11:33 | -3.77686 | -38.54064 | 91 ft | 21 kts | 284° |
| 2026-04-27 11:33 | -3.77648 | -38.54207 | 93 ft | 21 kts | 285° |
| 2026-04-27 11:33 | -3.77608 | -38.54346 | 93 ft | 20 kts | 301° |
| 2026-04-27 11:33 | -3.77478 | -38.54385 | 92 ft | 20 kts | 4° |
| 2026-04-27 11:34 | -3.77360 | -38.54329 | 95 ft | 19 kts | 67° |
| 2026-04-27 11:34 | -3.77377 | -38.54219 | 95 ft | 19 kts | 105° |
| 2026-04-27 11:34 | -3.77475 | -38.53848 | 91 ft | 91 kts | 104° |
| 2026-04-27 11:34 | -3.77695 | -38.53022 | 93 ft | 152 kts | 105° |
| 2026-04-27 11:35 | -3.78012 | -38.51900 | 496 ft | 173 kts | 106° |
| 2026-04-27 11:35 | -3.78333 | -38.50729 | 1367 ft | 169 kts | 105° |
| 2026-04-27 11:35 | -3.78636 | -38.49601 | 2201 ft | 170 kts | 106° |
| 2026-04-27 11:35 | -3.79306 | -38.48547 | 2506 ft | 199 kts | 146° |
| 2026-04-27 11:36 | -3.80717 | -38.48225 | 2732 ft | 225 kts | 181° |
| 2026-04-27 11:36 | -3.82345 | -38.48381 | 3002 ft | 247 kts | 183° |
| 2026-04-27 11:36 | -3.84121 | -38.48532 | 3438 ft | 262 kts | 182° |
| 2026-04-27 11:36 | -3.85951 | -38.48660 | 4266 ft | 262 kts | 181° |
| 2026-04-27 11:37 | -3.87766 | -38.48764 | 5074 ft | 266 kts | 181° |
| 2026-04-27 11:37 | -3.89641 | -38.48852 | 5819 ft | 271 kts | 180° |
| 2026-04-27 11:37 | -3.91546 | -38.48929 | 6570 ft | 275 kts | 180° |
| 2026-04-27 11:37 | -3.93472 | -38.49002 | 7299 ft | 279 kts | 180° |
| 2026-04-27 11:38 | -3.95425 | -38.49073 | 8010 ft | 283 kts | 180° |
| 2026-04-27 11:38 | -3.97407 | -38.49190 | 8711 ft | 288 kts | 187° |
| 2026-04-27 11:38 | -3.99367 | -38.49588 | 9415 ft | 293 kts | 192° |
| 2026-04-27 11:38 | -4.01355 | -38.50108 | 10103 ft | 298 kts | 194° |
| 2026-04-27 11:39 | -4.03399 | -38.50664 | 10479 ft | 316 kts | 194° |
| 2026-04-27 11:39 | -4.05601 | -38.51259 | 10635 ft | 338 kts | 194° |
| 2026-04-27 11:39 | -4.07934 | -38.51878 | 10894 ft | 354 kts | 193° |
| 2026-04-27 11:39 | -4.10334 | -38.52505 | 11433 ft | 359 kts | 193° |
| 2026-04-27 11:40 | -4.12759 | -38.53133 | 12088 ft | 360 kts | 193° |
| 2026-04-27 11:40 | -4.15198 | -38.53758 | 12745 ft | 362 kts | 193° |
| 2026-04-27 11:40 | -4.17647 | -38.54383 | 13363 ft | 365 kts | 193° |
| 2026-04-27 11:40 | -4.20115 | -38.55011 | 13954 ft | 367 kts | 193° |
| 2026-04-27 11:41 | -4.22603 | -38.55643 | 14479 ft | 370 kts | 193° |
| 2026-04-27 11:41 | -4.25113 | -38.56280 | 14992 ft | 374 kts | 193° |
| 2026-04-27 11:41 | -4.27646 | -38.56923 | 15503 ft | 377 kts | 193° |
| 2026-04-27 11:41 | -4.30205 | -38.57574 | 16017 ft | 380 kts | 193° |
| 2026-04-27 11:42 | -4.32781 | -38.58228 | 16512 ft | 384 kts | 193° |
| 2026-04-27 11:42 | -4.35380 | -38.58888 | 16999 ft | 387 kts | 193° |
| 2026-04-27 11:42 | -4.38002 | -38.59554 | 17490 ft | 390 kts | 193° |
| 2026-04-27 11:42 | -4.40645 | -38.60226 | 17976 ft | 394 kts | 193° |
| 2026-04-27 11:43 | -4.43310 | -38.60904 | 18427 ft | 397 kts | 193° |
| 2026-04-27 11:43 | -4.46002 | -38.61588 | 18831 ft | 400 kts | 193° |
| 2026-04-27 11:43 | -4.48680 | -38.62371 | 19223 ft | 404 kts | 202° |
| 2026-04-27 11:43 | -4.51087 | -38.63845 | 19632 ft | 408 kts | 215° |
| 2026-04-27 11:44 | -4.53332 | -38.65532 | 20058 ft | 410 kts | 216° |
| 2026-04-27 11:44 | -4.55641 | -38.67296 | 20445 ft | 414 kts | 216° |
| 2026-04-27 11:44 | -4.57935 | -38.69051 | 20822 ft | 417 kts | 216° |
| 2026-04-27 11:44 | -4.60224 | -38.70793 | 21209 ft | 419 kts | 216° |
| 2026-04-27 11:45 | -4.62558 | -38.72558 | 21582 ft | 422 kts | 216° |
| 2026-04-27 11:45 | -4.64144 | -38.73753 | 21848 ft | 423 kts | 215° |
| 2026-04-27 11:45 | -4.67282 | -38.76108 | 22332 ft | 427 kts | 215° |
| 2026-04-27 11:45 | -4.69673 | -38.77898 | 22692 ft | 429 kts | 215° |
| 2026-04-27 11:46 | -4.72073 | -38.79694 | 23045 ft | 432 kts | 215° |
| 2026-04-27 11:46 | -4.74488 | -38.81500 | 23375 ft | 435 kts | 215° |
| 2026-04-27 11:46 | -4.76918 | -38.83317 | 23697 ft | 437 kts | 215° |
| 2026-04-27 11:46 | -4.79362 | -38.85145 | 23974 ft | 440 kts | 215° |
| 2026-04-27 11:47 | -4.81823 | -38.86986 | 24262 ft | 442 kts | 215° |
| 2026-04-27 11:47 | -4.84291 | -38.88832 | 24537 ft | 444 kts | 215° |
| 2026-04-27 11:47 | -4.86771 | -38.90688 | 24803 ft | 446 kts | 215° |
| 2026-04-27 11:47 | -4.89265 | -38.92554 | 25079 ft | 448 kts | 215° |
| 2026-04-27 11:48 | -4.91782 | -38.94438 | 25340 ft | 451 kts | 215° |
| 2026-04-27 11:48 | -4.94300 | -38.96323 | 25604 ft | 453 kts | 215° |
| 2026-04-27 11:48 | -4.96830 | -38.98217 | 25869 ft | 455 kts | 215° |
| 2026-04-27 11:48 | -4.99370 | -39.00119 | 26134 ft | 457 kts | 215° |
| 2026-04-27 11:49 | -5.01892 | -39.02008 | 26392 ft | 459 kts | 215° |
| 2026-04-27 11:49 | -5.04454 | -39.03926 | 26673 ft | 461 kts | 215° |
| 2026-04-27 11:49 | -5.07028 | -39.05853 | 26921 ft | 463 kts | 215° |
| 2026-04-27 11:49 | -5.09613 | -39.07790 | 27172 ft | 465 kts | 215° |
| 2026-04-27 11:50 | -5.12209 | -39.09734 | 27414 ft | 467 kts | 215° |
| 2026-04-27 11:50 | -5.14814 | -39.11686 | 27662 ft | 468 kts | 215° |
| 2026-04-27 11:50 | -5.17430 | -39.13646 | 27890 ft | 470 kts | 215° |
| 2026-04-27 11:50 | -5.20057 | -39.15614 | 28114 ft | 473 kts | 215° |
| 2026-04-27 11:51 | -5.22701 | -39.17596 | 28330 ft | 475 kts | 215° |
| 2026-04-27 11:51 | -5.25351 | -39.19582 | 28543 ft | 477 kts | 215° |
| 2026-04-27 11:51 | -5.30682 | -39.23578 | 29015 ft | 479 kts | 215° |
| 2026-04-27 11:52 | -5.33355 | -39.25582 | 29238 ft | 480 kts | 215° |
| 2026-04-27 11:52 | -5.36042 | -39.27597 | 29453 ft | 482 kts | 215° |
| 2026-04-27 11:52 | -5.38725 | -39.29608 | 29687 ft | 483 kts | 215° |
| 2026-04-27 11:52 | -5.41417 | -39.31628 | 30013 ft | 482 kts | 215° |
| 2026-04-27 11:53 | -5.44096 | -39.33637 | 30317 ft | 480 kts | 215° |
| 2026-04-27 11:53 | -5.46769 | -39.35643 | 30582 ft | 480 kts | 215° |
| 2026-04-27 11:53 | -5.49447 | -39.37652 | 30814 ft | 480 kts | 215° |
| 2026-04-27 11:53 | -5.52128 | -39.39663 | 31045 ft | 480 kts | 215° |
| 2026-04-27 11:54 | -5.54801 | -39.41669 | 31315 ft | 480 kts | 215° |
| 2026-04-27 11:54 | -5.57442 | -39.43651 | 31582 ft | 479 kts | 215° |
| 2026-04-27 11:54 | -5.60118 | -39.45660 | 31847 ft | 479 kts | 215° |
| 2026-04-27 11:54 | -5.62786 | -39.47662 | 32103 ft | 479 kts | 215° |
| 2026-04-27 11:55 | -5.65451 | -39.49663 | 32362 ft | 478 kts | 215° |
| 2026-04-27 11:55 | -5.68121 | -39.51668 | 32626 ft | 478 kts | 215° |
| 2026-04-27 11:55 | -5.70784 | -39.53668 | 32890 ft | 478 kts | 214° |
| 2026-04-27 11:55 | -5.73451 | -39.55671 | 33160 ft | 478 kts | 214° |
| 2026-04-27 11:56 | -5.76109 | -39.57668 | 33424 ft | 477 kts | 214° |
| 2026-04-27 11:56 | -5.78767 | -39.59664 | 33672 ft | 477 kts | 214° |
| 2026-04-27 11:56 | -5.81430 | -39.61665 | 33922 ft | 477 kts | 214° |
| 2026-04-27 11:56 | -5.84085 | -39.63660 | 34162 ft | 477 kts | 214° |
| 2026-04-27 11:57 | -5.86737 | -39.65653 | 34393 ft | 476 kts | 214° |
| 2026-04-27 11:57 | -5.89349 | -39.67616 | 34628 ft | 475 kts | 214° |
| 2026-04-27 11:57 | -5.91990 | -39.69602 | 34866 ft | 474 kts | 214° |
| 2026-04-27 11:57 | -5.94632 | -39.71588 | 35104 ft | 473 kts | 214° |
| 2026-04-27 11:58 | -5.97266 | -39.73569 | 35352 ft | 471 kts | 214° |
| 2026-04-27 11:58 | -5.99887 | -39.75540 | 35578 ft | 470 kts | 214° |
| 2026-04-27 11:58 | -6.02505 | -39.77509 | 35766 ft | 470 kts | 214° |
| 2026-04-27 11:58 | -6.05121 | -39.79477 | 35969 ft | 470 kts | 214° |
| 2026-04-27 11:59 | -6.07742 | -39.81449 | 36084 ft | 471 kts | 214° |
| 2026-04-27 11:59 | -6.13301 | -39.84877 | 36092 ft | 467 kts | 202° |
| 2026-04-27 12:00 | -6.19207 | -39.87542 | 36084 ft | 464 kts | 201° |
| 2026-04-27 12:00 | -6.25098 | -39.90170 | 36082 ft | 463 kts | 201° |
| 2026-04-27 12:01 | -6.30958 | -39.92838 | 36080 ft | 461 kts | 202° |
| 2026-04-27 12:01 | -6.36791 | -39.95521 | 36085 ft | 460 kts | 202° |
| 2026-04-27 12:02 | -6.42574 | -39.98185 | 36091 ft | 461 kts | 202° |
| 2026-04-27 12:02 | -6.48405 | -40.00871 | 36085 ft | 462 kts | 202° |
| 2026-04-27 12:03 | -6.54262 | -40.03568 | 36091 ft | 463 kts | 202° |
| 2026-04-27 12:03 | -6.60126 | -40.06268 | 36097 ft | 464 kts | 202° |
| 2026-04-27 12:04 | -6.66008 | -40.08978 | 36091 ft | 466 kts | 202° |
| 2026-04-27 12:04 | -6.70915 | -40.11240 | 36098 ft | 467 kts | 202° |
| 2026-04-27 12:05 | -6.76833 | -40.13969 | 36091 ft | 468 kts | 202° |
| 2026-04-27 12:05 | -6.82726 | -40.16766 | 36094 ft | 469 kts | 205° |
| 2026-04-27 12:06 | -6.88509 | -40.19814 | 36096 ft | 470 kts | 206° |
| 2026-04-27 12:06 | -6.94271 | -40.22903 | 36092 ft | 469 kts | 206° |
| 2026-04-27 12:07 | -7.00043 | -40.25964 | 36095 ft | 468 kts | 206° |
| 2026-04-27 12:07 | -7.05815 | -40.28999 | 36098 ft | 467 kts | 206° |
| 2026-04-27 12:08 | -7.11576 | -40.32020 | 36098 ft | 466 kts | 206° |
| 2026-04-27 12:08 | -7.17292 | -40.35019 | 36104 ft | 465 kts | 206° |
| 2026-04-27 12:09 | -7.23020 | -40.38026 | 36101 ft | 464 kts | 206° |
| 2026-04-27 12:09 | -7.28745 | -40.41033 | 36109 ft | 463 kts | 206° |
| 2026-04-27 12:10 | -7.34457 | -40.44034 | 36109 ft | 463 kts | 206° |
| 2026-04-27 12:10 | -7.40165 | -40.47034 | 36107 ft | 463 kts | 206° |
| 2026-04-27 12:11 | -7.45882 | -40.50040 | 36111 ft | 463 kts | 206° |
| 2026-04-27 12:11 | -7.51583 | -40.53038 | 36111 ft | 463 kts | 206° |
| 2026-04-27 12:12 | -7.57301 | -40.56046 | 36109 ft | 463 kts | 206° |
| 2026-04-27 12:12 | -7.63026 | -40.59058 | 36109 ft | 464 kts | 206° |
| 2026-04-27 12:13 | -7.68714 | -40.62052 | 36108 ft | 465 kts | 206° |
| 2026-04-27 12:13 | -7.74455 | -40.65074 | 36113 ft | 465 kts | 206° |
| 2026-04-27 12:14 | -7.80198 | -40.68099 | 36110 ft | 466 kts | 206° |
| 2026-04-27 12:14 | -7.85950 | -40.71129 | 36108 ft | 467 kts | 206° |
| 2026-04-27 12:15 | -7.91709 | -40.74164 | 36107 ft | 467 kts | 206° |
| 2026-04-27 12:15 | -7.97478 | -40.77206 | 36109 ft | 467 kts | 206° |
| 2026-04-27 12:16 | -8.03240 | -40.80244 | 36107 ft | 467 kts | 206° |
| 2026-04-27 12:16 | -8.08999 | -40.83282 | 36106 ft | 467 kts | 206° |
| 2026-04-27 12:17 | -8.14757 | -40.86321 | 36105 ft | 466 kts | 206° |
| 2026-04-27 12:17 | -8.20508 | -40.89356 | 36108 ft | 466 kts | 206° |
| 2026-04-27 12:18 | -8.26212 | -40.92368 | 36109 ft | 465 kts | 206° |
| 2026-04-27 12:18 | -8.31941 | -40.95395 | 36111 ft | 465 kts | 206° |
| 2026-04-27 12:19 | -8.37671 | -40.98422 | 36114 ft | 464 kts | 206° |
| 2026-04-27 12:19 | -8.43393 | -41.01446 | 36115 ft | 464 kts | 206° |
| 2026-04-27 12:20 | -8.49126 | -41.04477 | 36108 ft | 464 kts | 206° |
| 2026-04-27 12:20 | -8.54844 | -41.07502 | 36108 ft | 464 kts | 206° |
| 2026-04-27 12:21 | -8.60575 | -41.10534 | 36111 ft | 464 kts | 206° |
| 2026-04-27 12:21 | -8.66289 | -41.13558 | 36115 ft | 464 kts | 206° |
| 2026-04-27 12:22 | -8.72020 | -41.16592 | 36114 ft | 465 kts | 206° |
| 2026-04-27 12:22 | -8.77716 | -41.19610 | 36113 ft | 465 kts | 206° |
| 2026-04-27 12:23 | -8.83451 | -41.22648 | 36113 ft | 466 kts | 206° |
| 2026-04-27 12:23 | -8.89190 | -41.25690 | 36112 ft | 466 kts | 206° |
| 2026-04-27 12:24 | -8.94942 | -41.28740 | 36108 ft | 467 kts | 206° |
| 2026-04-27 12:24 | -9.00693 | -41.31790 | 36113 ft | 467 kts | 206° |
| 2026-04-27 12:25 | -9.06450 | -41.34844 | 36105 ft | 467 kts | 206° |
| 2026-04-27 12:25 | -9.12215 | -41.37904 | 36108 ft | 468 kts | 206° |
| 2026-04-27 12:26 | -9.17985 | -41.40968 | 36108 ft | 468 kts | 206° |
| 2026-04-27 12:26 | -9.23748 | -41.44029 | 36109 ft | 468 kts | 206° |
| 2026-04-27 12:27 | -9.29519 | -41.47096 | 36102 ft | 468 kts | 206° |
| 2026-04-27 12:27 | -9.35250 | -41.50142 | 36103 ft | 468 kts | 206° |
| 2026-04-27 12:28 | -9.41011 | -41.53206 | 36103 ft | 467 kts | 206° |
| 2026-04-27 12:28 | -9.46778 | -41.56274 | 36102 ft | 467 kts | 206° |
| 2026-04-27 12:29 | -9.52529 | -41.59335 | 36102 ft | 467 kts | 206° |
| 2026-04-27 12:29 | -9.58276 | -41.62394 | 36099 ft | 467 kts | 207° |
| 2026-04-27 12:30 | -9.64027 | -41.65457 | 36095 ft | 466 kts | 207° |
| 2026-04-27 12:30 | -9.69769 | -41.68516 | 36098 ft | 466 kts | 207° |
| 2026-04-27 12:31 | -9.75523 | -41.71583 | 36103 ft | 466 kts | 207° |
| 2026-04-27 12:31 | -9.81227 | -41.74625 | 36099 ft | 466 kts | 207° |
| 2026-04-27 12:32 | -9.86960 | -41.77682 | 36095 ft | 466 kts | 207° |
| 2026-04-27 12:32 | -9.92696 | -41.80743 | 36102 ft | 465 kts | 207° |
| 2026-04-27 12:33 | -9.98424 | -41.83801 | 36099 ft | 465 kts | 207° |
| 2026-04-27 12:33 | -10.04157 | -41.86863 | 36100 ft | 465 kts | 207° |
| 2026-04-27 12:34 | -10.09890 | -41.89926 | 36107 ft | 465 kts | 207° |
| 2026-04-27 12:34 | -10.15617 | -41.92987 | 36095 ft | 465 kts | 207° |
| 2026-04-27 12:35 | -10.21342 | -41.96049 | 36096 ft | 465 kts | 207° |
| 2026-04-27 12:35 | -10.27079 | -41.99118 | 36101 ft | 465 kts | 207° |
| 2026-04-27 12:36 | -10.32763 | -42.02160 | 36100 ft | 465 kts | 207° |
| 2026-04-27 12:36 | -10.38489 | -42.05225 | 36102 ft | 465 kts | 207° |
| 2026-04-27 12:37 | -10.44207 | -42.08288 | 36102 ft | 465 kts | 207° |
| 2026-04-27 12:37 | -10.49928 | -42.11354 | 36095 ft | 464 kts | 207° |
| 2026-04-27 12:38 | -10.55641 | -42.14417 | 36100 ft | 464 kts | 207° |
| 2026-04-27 12:38 | -10.61360 | -42.17484 | 36105 ft | 464 kts | 207° |
| 2026-04-27 12:39 | -10.67075 | -42.20544 | 36104 ft | 464 kts | 206° |
| 2026-04-27 12:39 | -10.72785 | -42.23543 | 36104 ft | 465 kts | 206° |
| 2026-04-27 12:40 | -10.78535 | -42.26547 | 36108 ft | 465 kts | 206° |
| 2026-04-27 12:40 | -10.84292 | -42.29561 | 36105 ft | 465 kts | 206° |
| 2026-04-27 12:41 | -10.90042 | -42.32578 | 36109 ft | 465 kts | 206° |
| 2026-04-27 12:41 | -10.95793 | -42.35601 | 36121 ft | 465 kts | 206° |
| 2026-04-27 12:42 | -11.01552 | -42.38628 | 36112 ft | 465 kts | 206° |
| 2026-04-27 12:42 | -11.07305 | -42.41654 | 36115 ft | 466 kts | 206° |
| 2026-04-27 12:43 | -11.13029 | -42.44665 | 36123 ft | 466 kts | 206° |
| 2026-04-27 12:43 | -11.18798 | -42.47701 | 36114 ft | 466 kts | 206° |
| 2026-04-27 12:44 | -11.24563 | -42.50737 | 36128 ft | 467 kts | 206° |
| 2026-04-27 12:44 | -11.30338 | -42.53779 | 36119 ft | 467 kts | 206° |
| 2026-04-27 12:45 | -11.36114 | -42.56824 | 36122 ft | 467 kts | 206° |
| 2026-04-27 12:45 | -11.41891 | -42.59870 | 36136 ft | 467 kts | 207° |
| 2026-04-27 12:46 | -11.47662 | -42.62914 | 36115 ft | 467 kts | 207° |
| 2026-04-27 12:46 | -11.53427 | -42.65957 | 36120 ft | 467 kts | 207° |
| 2026-04-27 12:47 | -11.59195 | -42.69003 | 36124 ft | 466 kts | 207° |
| 2026-04-27 12:47 | -11.64907 | -42.72021 | 36123 ft | 465 kts | 207° |
| 2026-04-27 12:48 | -11.70650 | -42.75056 | 36113 ft | 464 kts | 207° |
| 2026-04-27 12:48 | -11.76385 | -42.78089 | 36105 ft | 464 kts | 207° |
| 2026-04-27 12:49 | -11.82100 | -42.81112 | 36111 ft | 462 kts | 207° |
| 2026-04-27 12:49 | -11.87809 | -42.84134 | 36106 ft | 461 kts | 207° |
| 2026-04-27 12:50 | -11.93506 | -42.87150 | 36107 ft | 460 kts | 207° |
| 2026-04-27 12:50 | -11.99200 | -42.90167 | 36109 ft | 460 kts | 207° |
| 2026-04-27 12:51 | -12.04872 | -42.93173 | 36106 ft | 459 kts | 207° |
| 2026-04-27 12:51 | -12.10508 | -42.96162 | 36099 ft | 459 kts | 207° |
| 2026-04-27 12:52 | -12.16179 | -42.99171 | 36106 ft | 459 kts | 207° |
| 2026-04-27 12:52 | -12.21844 | -43.02178 | 36105 ft | 459 kts | 207° |
| 2026-04-27 12:53 | -12.29397 | -43.06189 | 36103 ft | 459 kts | 207° |
| 2026-04-27 12:53 | -12.35061 | -43.09199 | 36099 ft | 459 kts | 207° |
| 2026-04-27 12:54 | -12.40734 | -43.12215 | 36101 ft | 459 kts | 207° |
| 2026-04-27 12:54 | -12.46399 | -43.15229 | 36097 ft | 459 kts | 207° |
| 2026-04-27 12:55 | -12.52069 | -43.18246 | 36107 ft | 459 kts | 207° |
| 2026-04-27 12:55 | -12.57730 | -43.21261 | 36091 ft | 459 kts | 207° |
| 2026-04-27 12:56 | -12.63404 | -43.24283 | 36087 ft | 459 kts | 207° |
| 2026-04-27 12:56 | -12.69025 | -43.27279 | 36106 ft | 458 kts | 207° |
| 2026-04-27 12:57 | -12.74681 | -43.30295 | 36089 ft | 458 kts | 207° |
| 2026-04-27 12:57 | -12.80342 | -43.33316 | 36089 ft | 458 kts | 207° |
| 2026-04-27 12:58 | -12.86003 | -43.36338 | 36084 ft | 458 kts | 207° |
| 2026-04-27 12:58 | -12.91657 | -43.39357 | 36087 ft | 458 kts | 208° |
| 2026-04-27 12:59 | -12.97311 | -43.42379 | 36103 ft | 458 kts | 208° |
| 2026-04-27 12:59 | -13.02971 | -43.45405 | 36087 ft | 459 kts | 208° |
| 2026-04-27 13:00 | -13.08636 | -43.48435 | 36099 ft | 459 kts | 208° |
| 2026-04-27 13:00 | -13.14301 | -43.51467 | 36099 ft | 459 kts | 208° |
| 2026-04-27 13:01 | -13.19961 | -43.54498 | 36098 ft | 459 kts | 208° |
| 2026-04-27 13:01 | -13.25621 | -43.57530 | 36098 ft | 459 kts | 208° |
| 2026-04-27 13:02 | -13.31282 | -43.60564 | 36100 ft | 459 kts | 208° |
| 2026-04-27 13:02 | -13.36901 | -43.63578 | 36103 ft | 458 kts | 208° |
| 2026-04-27 13:03 | -13.42559 | -43.66614 | 36100 ft | 458 kts | 208° |
| 2026-04-27 13:03 | -13.48213 | -43.69650 | 36104 ft | 458 kts | 208° |
| 2026-04-27 13:04 | -13.53863 | -43.72685 | 36107 ft | 458 kts | 208° |
| 2026-04-27 13:04 | -13.59503 | -43.75716 | 36104 ft | 457 kts | 208° |
| 2026-04-27 13:05 | -13.65147 | -43.78752 | 36113 ft | 457 kts | 208° |
| 2026-04-27 13:05 | -13.70751 | -43.81767 | 36095 ft | 457 kts | 208° |
| 2026-04-27 13:06 | -13.76383 | -43.84799 | 36113 ft | 457 kts | 208° |
| 2026-04-27 13:06 | -13.82017 | -43.87834 | 36098 ft | 457 kts | 208° |
| 2026-04-27 13:07 | -13.87655 | -43.90873 | 36112 ft | 457 kts | 208° |
| 2026-04-27 13:07 | -13.93303 | -43.93918 | 36100 ft | 457 kts | 208° |
| 2026-04-27 13:08 | -13.98940 | -43.96960 | 36111 ft | 458 kts | 208° |
| 2026-04-27 13:08 | -14.04581 | -44.00005 | 36106 ft | 458 kts | 208° |
| 2026-04-27 13:09 | -14.10229 | -44.03056 | 36109 ft | 458 kts | 208° |
| 2026-04-27 13:09 | -14.15709 | -44.06019 | 36100 ft | 458 kts | 208° |
| 2026-04-27 13:10 | -14.21318 | -44.09052 | 36114 ft | 458 kts | 208° |
| 2026-04-27 13:10 | -14.26867 | -44.12267 | 36111 ft | 457 kts | 215° |
| 2026-04-27 13:11 | -14.32032 | -44.16103 | 36116 ft | 458 kts | 218° |
| 2026-04-27 13:11 | -14.37170 | -44.20055 | 36322 ft | 462 kts | 218° |
| 2026-04-27 13:12 | -14.39747 | -44.22019 | 36603 ft | 460 kts | 217° |
| 2026-04-27 13:12 | -14.42323 | -44.23967 | 36893 ft | 457 kts | 217° |
| 2026-04-27 13:12 | -14.44889 | -44.25897 | 37119 ft | 456 kts | 217° |
| 2026-04-27 13:12 | -14.47455 | -44.27820 | 37323 ft | 456 kts | 217° |
| 2026-04-27 13:13 | -14.50021 | -44.29742 | 37493 ft | 456 kts | 217° |
| 2026-04-27 13:13 | -14.52593 | -44.31667 | 37695 ft | 455 kts | 217° |
| 2026-04-27 13:13 | -14.55153 | -44.33584 | 37928 ft | 454 kts | 217° |
| 2026-04-27 13:13 | -14.57676 | -44.35474 | 38080 ft | 453 kts | 217° |
| 2026-04-27 13:14 | -14.62800 | -44.39317 | 38078 ft | 455 kts | 217° |
| 2026-04-27 13:14 | -14.67911 | -44.43152 | 38080 ft | 453 kts | 217° |
| 2026-04-27 13:15 | -14.73002 | -44.46975 | 38078 ft | 452 kts | 218° |
| 2026-04-27 13:15 | -14.78085 | -44.50794 | 38085 ft | 450 kts | 218° |
| 2026-04-27 13:16 | -14.83144 | -44.54597 | 38079 ft | 449 kts | 218° |
| 2026-04-27 13:16 | -14.88165 | -44.58375 | 38080 ft | 449 kts | 218° |
| 2026-04-27 13:17 | -14.93209 | -44.62171 | 38077 ft | 448 kts | 218° |
| 2026-04-27 13:17 | -14.98252 | -44.65969 | 38082 ft | 449 kts | 218° |
| 2026-04-27 13:18 | -15.03306 | -44.69778 | 38080 ft | 449 kts | 218° |
| 2026-04-27 13:18 | -15.08365 | -44.73593 | 38082 ft | 450 kts | 218° |
| 2026-04-27 13:19 | -15.13397 | -44.77390 | 38078 ft | 451 kts | 218° |
| 2026-04-27 13:19 | -15.18470 | -44.81219 | 38075 ft | 451 kts | 218° |
| 2026-04-27 13:20 | -15.23541 | -44.85050 | 38077 ft | 452 kts | 218° |
| 2026-04-27 13:20 | -15.28622 | -44.88891 | 38073 ft | 452 kts | 218° |
| 2026-04-27 13:21 | -15.33706 | -44.92736 | 38074 ft | 452 kts | 218° |
| 2026-04-27 13:21 | -15.38792 | -44.96586 | 38071 ft | 452 kts | 218° |
| 2026-04-27 13:22 | -15.43870 | -45.00433 | 38068 ft | 452 kts | 218° |
| 2026-04-27 13:22 | -15.48923 | -45.04262 | 38071 ft | 452 kts | 218° |
| 2026-04-27 13:23 | -15.54107 | -45.07954 | 38062 ft | 453 kts | 211° |
| 2026-04-27 13:23 | -15.59640 | -45.11062 | 38066 ft | 452 kts | 209° |
| 2026-04-27 13:24 | -15.65203 | -45.14116 | 38067 ft | 452 kts | 210° |
| 2026-04-27 13:24 | -15.70742 | -45.17190 | 38062 ft | 451 kts | 210° |
| 2026-04-27 13:25 | -15.76270 | -45.20286 | 38065 ft | 451 kts | 210° |
| 2026-04-27 13:25 | -15.81780 | -45.23383 | 38070 ft | 450 kts | 210° |
| 2026-04-27 13:26 | -15.87286 | -45.26482 | 38067 ft | 450 kts | 210° |
| 2026-04-27 13:26 | -15.92796 | -45.29583 | 38070 ft | 450 kts | 210° |
| 2026-04-27 13:27 | -15.98264 | -45.32663 | 38067 ft | 450 kts | 210° |
| 2026-04-27 13:27 | -16.03770 | -45.35765 | 38070 ft | 450 kts | 210° |
| 2026-04-27 13:28 | -16.09270 | -45.38867 | 38070 ft | 449 kts | 210° |
| 2026-04-27 13:28 | -16.14761 | -45.41964 | 38061 ft | 449 kts | 210° |
| 2026-04-27 13:29 | -16.20247 | -45.45061 | 38069 ft | 449 kts | 210° |
| 2026-04-27 13:29 | -16.25729 | -45.48158 | 38062 ft | 448 kts | 210° |
| 2026-04-27 13:30 | -16.31216 | -45.51260 | 38073 ft | 448 kts | 210° |
| 2026-04-27 13:30 | -16.36698 | -45.54361 | 38062 ft | 449 kts | 210° |
| 2026-04-27 13:31 | -16.42178 | -45.57463 | 38069 ft | 448 kts | 210° |
| 2026-04-27 13:31 | -16.47663 | -45.60569 | 38067 ft | 448 kts | 210° |
| 2026-04-27 13:32 | -16.53115 | -45.63659 | 38063 ft | 448 kts | 210° |
| 2026-04-27 13:32 | -16.58592 | -45.66765 | 38072 ft | 448 kts | 210° |
| 2026-04-27 13:33 | -16.64072 | -45.69875 | 38068 ft | 449 kts | 210° |
| 2026-04-27 13:33 | -16.69550 | -45.72986 | 38066 ft | 448 kts | 210° |
| 2026-04-27 13:34 | -16.75039 | -45.76105 | 38067 ft | 448 kts | 210° |
| 2026-04-27 13:34 | -16.80484 | -45.79200 | 38067 ft | 448 kts | 210° |
| 2026-04-27 13:35 | -16.85962 | -45.82317 | 38064 ft | 448 kts | 210° |
| 2026-04-27 13:35 | -16.91429 | -45.85430 | 38068 ft | 448 kts | 210° |
| 2026-04-27 13:36 | -16.96896 | -45.88545 | 38062 ft | 448 kts | 210° |
| 2026-04-27 13:36 | -17.02367 | -45.91664 | 38063 ft | 447 kts | 210° |
| 2026-04-27 13:37 | -17.07830 | -45.94780 | 38060 ft | 447 kts | 210° |
| 2026-04-27 13:37 | -17.13146 | -45.97815 | 38062 ft | 447 kts | 210° |
| 2026-04-27 13:38 | -17.18605 | -46.00934 | 38064 ft | 447 kts | 210° |
| 2026-04-27 13:38 | -17.24024 | -46.04032 | 38067 ft | 447 kts | 210° |
| 2026-04-27 13:39 | -17.29479 | -46.07152 | 38058 ft | 446 kts | 210° |
| 2026-04-27 13:39 | -17.34927 | -46.10271 | 38070 ft | 446 kts | 210° |
| 2026-04-27 13:40 | -17.40376 | -46.13392 | 38061 ft | 446 kts | 210° |
| 2026-04-27 13:40 | -17.45827 | -46.16517 | 38068 ft | 446 kts | 210° |
| 2026-04-27 13:41 | -17.51276 | -46.19642 | 38064 ft | 446 kts | 210° |
| 2026-04-27 13:41 | -17.56720 | -46.22767 | 38076 ft | 446 kts | 210° |
| 2026-04-27 13:42 | -17.62133 | -46.25876 | 38066 ft | 446 kts | 210° |
| 2026-04-27 13:42 | -17.67584 | -46.29010 | 38071 ft | 446 kts | 210° |
| 2026-04-27 13:43 | -17.72150 | -46.31635 | 38065 ft | 447 kts | 210° |
| 2026-04-27 13:43 | -17.78481 | -46.35279 | 38074 ft | 447 kts | 210° |
| 2026-04-27 13:44 | -17.83013 | -46.37890 | 38071 ft | 447 kts | 210° |
| 2026-04-27 13:44 | -17.88475 | -46.41038 | 38075 ft | 447 kts | 210° |
| 2026-04-27 13:45 | -17.93932 | -46.44185 | 38074 ft | 448 kts | 210° |
| 2026-04-27 13:45 | -17.99398 | -46.47340 | 38072 ft | 448 kts | 210° |
| 2026-04-27 13:46 | -18.04859 | -46.50494 | 38076 ft | 448 kts | 210° |
| 2026-04-27 13:46 | -18.10329 | -46.53655 | 38073 ft | 448 kts | 211° |
| 2026-04-27 13:47 | -18.15759 | -46.56796 | 38076 ft | 448 kts | 211° |
| 2026-04-27 13:47 | -18.21223 | -46.59958 | 38084 ft | 448 kts | 211° |
| 2026-04-27 13:48 | -18.26690 | -46.63125 | 38078 ft | 449 kts | 211° |
| 2026-04-27 13:48 | -18.32157 | -46.66294 | 38075 ft | 449 kts | 211° |
| 2026-04-27 13:49 | -18.37622 | -46.69464 | 38084 ft | 448 kts | 211° |
| 2026-04-27 13:49 | -18.43088 | -46.72638 | 38085 ft | 448 kts | 211° |
| 2026-04-27 13:50 | -18.48554 | -46.75813 | 38076 ft | 448 kts | 211° |
| 2026-04-27 13:50 | -18.54009 | -46.78984 | 38079 ft | 448 kts | 211° |
| 2026-04-27 13:51 | -18.59437 | -46.82141 | 38079 ft | 448 kts | 211° |
| 2026-04-27 13:51 | -18.64894 | -46.85319 | 38087 ft | 448 kts | 211° |
| 2026-04-27 13:52 | -18.70348 | -46.88497 | 38078 ft | 448 kts | 211° |
| 2026-04-27 13:52 | -18.75800 | -46.91676 | 38092 ft | 448 kts | 211° |
| 2026-04-27 13:53 | -18.83991 | -46.96456 | 38085 ft | 448 kts | 211° |
| 2026-04-27 13:54 | -18.89448 | -46.99644 | 38092 ft | 448 kts | 211° |
| 2026-04-27 13:54 | -18.94878 | -47.02819 | 38091 ft | 449 kts | 211° |
| 2026-04-27 13:55 | -19.00341 | -47.06015 | 38077 ft | 449 kts | 211° |
| 2026-04-27 13:55 | -19.05801 | -47.09213 | 38077 ft | 449 kts | 211° |
| 2026-04-27 13:56 | -19.11260 | -47.12412 | 38076 ft | 449 kts | 211° |
| 2026-04-27 13:56 | -19.16712 | -47.15623 | 38083 ft | 448 kts | 213° |
| 2026-04-27 13:57 | -19.22039 | -47.19046 | 38083 ft | 447 kts | 214° |
| 2026-04-27 13:57 | -19.27305 | -47.22544 | 38075 ft | 447 kts | 214° |
| 2026-04-27 13:58 | -19.32543 | -47.26005 | 38081 ft | 447 kts | 214° |
| 2026-04-27 13:58 | -19.37857 | -47.29490 | 38074 ft | 447 kts | 214° |
| 2026-04-27 13:59 | -19.43116 | -47.32931 | 38078 ft | 447 kts | 214° |
| 2026-04-27 13:59 | -19.48404 | -47.36391 | 38076 ft | 447 kts | 214° |
| 2026-04-27 14:00 | -19.53695 | -47.39857 | 38081 ft | 446 kts | 214° |
| 2026-04-27 14:00 | -19.58984 | -47.43324 | 38065 ft | 446 kts | 214° |
| 2026-04-27 14:01 | -19.64258 | -47.46784 | 38065 ft | 446 kts | 214° |
| 2026-04-27 14:01 | -19.69545 | -47.50256 | 38066 ft | 446 kts | 215° |
| 2026-04-27 14:02 | -19.74783 | -47.53698 | 38061 ft | 446 kts | 215° |
| 2026-04-27 14:02 | -19.80060 | -47.57169 | 38048 ft | 445 kts | 215° |
| 2026-04-27 14:03 | -19.85326 | -47.60635 | 38047 ft | 445 kts | 215° |
| 2026-04-27 14:03 | -19.90587 | -47.64101 | 38056 ft | 445 kts | 215° |
| 2026-04-27 14:04 | -19.95850 | -47.67571 | 38045 ft | 445 kts | 215° |
| 2026-04-27 14:04 | -20.01102 | -47.71036 | 38052 ft | 444 kts | 215° |
| 2026-04-27 14:05 | -20.06363 | -47.74510 | 38044 ft | 445 kts | 215° |
| 2026-04-27 14:05 | -20.11588 | -47.77963 | 38034 ft | 445 kts | 215° |
| 2026-04-27 14:06 | -20.16855 | -47.81446 | 38038 ft | 445 kts | 215° |
| 2026-04-27 14:06 | -20.22116 | -47.84929 | 38033 ft | 445 kts | 215° |
| 2026-04-27 14:07 | -20.27383 | -47.88418 | 38042 ft | 445 kts | 215° |
| 2026-04-27 14:07 | -20.32651 | -47.91911 | 38037 ft | 446 kts | 215° |
| 2026-04-27 14:08 | -20.37910 | -47.95400 | 38036 ft | 446 kts | 215° |
| 2026-04-27 14:08 | -20.43143 | -47.98874 | 38033 ft | 445 kts | 215° |
| 2026-04-27 14:09 | -20.48401 | -48.02369 | 38036 ft | 445 kts | 215° |
| 2026-04-27 14:09 | -20.53654 | -48.05862 | 38034 ft | 445 kts | 215° |
| 2026-04-27 14:10 | -20.58893 | -48.09350 | 38037 ft | 444 kts | 215° |
| 2026-04-27 14:10 | -20.64140 | -48.12846 | 38032 ft | 444 kts | 215° |
| 2026-04-27 14:11 | -20.69376 | -48.16337 | 38039 ft | 443 kts | 215° |
| 2026-04-27 14:11 | -20.74611 | -48.19830 | 38032 ft | 443 kts | 215° |
| 2026-04-27 14:12 | -20.79830 | -48.23316 | 38034 ft | 443 kts | 215° |
| 2026-04-27 14:12 | -20.85056 | -48.26810 | 38031 ft | 442 kts | 215° |
| 2026-04-27 14:13 | -20.90265 | -48.30294 | 38027 ft | 442 kts | 216° |
| 2026-04-27 14:13 | -20.95483 | -48.33788 | 38035 ft | 442 kts | 216° |
| 2026-04-27 14:14 | -21.00695 | -48.37281 | 38027 ft | 442 kts | 216° |
| 2026-04-27 14:14 | -21.05907 | -48.40776 | 38025 ft | 441 kts | 216° |
| 2026-04-27 14:15 | -21.11099 | -48.44261 | 38024 ft | 441 kts | 216° |
| 2026-04-27 14:15 | -21.16263 | -48.47730 | 38029 ft | 440 kts | 216° |
| 2026-04-27 14:16 | -21.21452 | -48.51219 | 38021 ft | 440 kts | 216° |
| 2026-04-27 14:16 | -21.26637 | -48.54708 | 38025 ft | 440 kts | 216° |
| 2026-04-27 14:17 | -21.31823 | -48.58201 | 38019 ft | 440 kts | 216° |
| 2026-04-27 14:17 | -21.37013 | -48.61699 | 38015 ft | 440 kts | 216° |
| 2026-04-27 14:18 | -21.42191 | -48.65192 | 38024 ft | 439 kts | 216° |
| 2026-04-27 14:18 | -21.47372 | -48.68690 | 38018 ft | 439 kts | 216° |
| 2026-04-27 14:19 | -21.52542 | -48.72184 | 38018 ft | 439 kts | 216° |
| 2026-04-27 14:19 | -21.57677 | -48.75657 | 38017 ft | 438 kts | 216° |
| 2026-04-27 14:20 | -21.62843 | -48.79154 | 38020 ft | 438 kts | 216° |
| 2026-04-27 14:20 | -21.68001 | -48.82649 | 38019 ft | 438 kts | 216° |
| 2026-04-27 14:21 | -21.73158 | -48.86145 | 38018 ft | 438 kts | 216° |
| 2026-04-27 14:21 | -21.78316 | -48.89646 | 38015 ft | 438 kts | 216° |
| 2026-04-27 14:22 | -21.83479 | -48.93153 | 38015 ft | 438 kts | 216° |
| 2026-04-27 14:22 | -21.88604 | -48.96637 | 38018 ft | 438 kts | 217° |
| 2026-04-27 14:23 | -21.93757 | -49.00143 | 38008 ft | 438 kts | 217° |
| 2026-04-27 14:23 | -21.98912 | -49.03654 | 38024 ft | 438 kts | 217° |
| 2026-04-27 14:24 | -22.04061 | -49.07164 | 38027 ft | 438 kts | 217° |
| 2026-04-27 14:24 | -22.09212 | -49.10678 | 38045 ft | 437 kts | 217° |
| 2026-04-27 14:25 | -22.14351 | -49.14187 | 38051 ft | 437 kts | 217° |
| 2026-04-27 14:25 | -22.19486 | -49.17696 | 38055 ft | 437 kts | 217° |
| 2026-04-27 14:26 | -22.24616 | -49.21206 | 38049 ft | 436 kts | 217° |
| 2026-04-27 14:26 | -22.29718 | -49.24699 | 38066 ft | 436 kts | 217° |
| 2026-04-27 14:27 | -22.34839 | -49.28208 | 38050 ft | 436 kts | 217° |
| 2026-04-27 14:27 | -22.39957 | -49.31719 | 38049 ft | 435 kts | 217° |
| 2026-04-27 14:28 | -22.45074 | -49.35232 | 38035 ft | 435 kts | 218° |
| 2026-04-27 14:28 | -22.50183 | -49.38743 | 38031 ft | 435 kts | 218° |
| 2026-04-27 14:29 | -22.55081 | -49.42478 | 38037 ft | 432 kts | 222° |
| 2026-04-27 14:29 | -22.59871 | -49.46411 | 38024 ft | 432 kts | 223° |
| 2026-04-27 14:30 | -22.64658 | -49.50345 | 38033 ft | 433 kts | 222° |
| 2026-04-27 14:30 | -22.69480 | -49.54274 | 38031 ft | 434 kts | 222° |
| 2026-04-27 14:31 | -22.74322 | -49.58201 | 38029 ft | 435 kts | 222° |
| 2026-04-27 14:31 | -22.79176 | -49.62135 | 38031 ft | 436 kts | 222° |
| 2026-04-27 14:32 | -22.83999 | -49.66049 | 38025 ft | 436 kts | 222° |
| 2026-04-27 14:32 | -22.88857 | -49.69995 | 38033 ft | 436 kts | 222° |
| 2026-04-27 14:33 | -22.93715 | -49.73944 | 38024 ft | 436 kts | 222° |
| 2026-04-27 14:33 | -22.97787 | -49.77257 | 38028 ft | 436 kts | 222° |
| 2026-04-27 14:34 | -23.02602 | -49.81179 | 38028 ft | 435 kts | 223° |
| 2026-04-27 14:34 | -23.08236 | -49.85772 | 38035 ft | 434 kts | 223° |
| 2026-04-27 14:35 | -23.12274 | -49.89067 | 38039 ft | 433 kts | 223° |
| 2026-04-27 14:35 | -23.17092 | -49.93002 | 38038 ft | 432 kts | 223° |
| 2026-04-27 14:36 | -23.21872 | -49.96909 | 38045 ft | 431 kts | 223° |
| 2026-04-27 14:36 | -23.26666 | -50.00832 | 38036 ft | 430 kts | 223° |
| 2026-04-27 14:37 | -23.31447 | -50.04747 | 38035 ft | 429 kts | 223° |
| 2026-04-27 14:37 | -23.36211 | -50.08653 | 38032 ft | 428 kts | 224° |
| 2026-04-27 14:38 | -23.40967 | -50.12556 | 38024 ft | 428 kts | 224° |
| 2026-04-27 14:38 | -23.45719 | -50.16458 | 38023 ft | 427 kts | 224° |
| 2026-04-27 14:39 | -23.50427 | -50.20328 | 38036 ft | 426 kts | 224° |
| 2026-04-27 14:39 | -23.55156 | -50.24219 | 38030 ft | 426 kts | 224° |
| 2026-04-27 14:40 | -23.59882 | -50.28111 | 38031 ft | 426 kts | 224° |
| 2026-04-27 14:40 | -23.64611 | -50.32010 | 38031 ft | 426 kts | 224° |
| 2026-04-27 14:41 | -23.69336 | -50.35909 | 38037 ft | 426 kts | 224° |
| 2026-04-27 14:41 | -23.74064 | -50.39814 | 38036 ft | 426 kts | 224° |
| 2026-04-27 14:42 | -23.78795 | -50.43725 | 38041 ft | 427 kts | 224° |
| 2026-04-27 14:42 | -23.83536 | -50.47647 | 38043 ft | 428 kts | 224° |
| 2026-04-27 14:43 | -23.88255 | -50.51556 | 38037 ft | 429 kts | 224° |
| 2026-04-27 14:43 | -23.93020 | -50.55506 | 38049 ft | 430 kts | 224° |
| 2026-04-27 14:44 | -23.97798 | -50.59470 | 38050 ft | 431 kts | 224° |
| 2026-04-27 14:44 | -24.02593 | -50.63454 | 38067 ft | 434 kts | 225° |
| 2026-04-27 14:45 | -24.07388 | -50.67441 | 38045 ft | 436 kts | 225° |
| 2026-04-27 14:45 | -24.12235 | -50.71473 | 38059 ft | 438 kts | 225° |
| 2026-04-27 14:46 | -24.17087 | -50.75514 | 38054 ft | 438 kts | 225° |
| 2026-04-27 14:46 | -24.21938 | -50.79557 | 38065 ft | 437 kts | 225° |
| 2026-04-27 14:47 | -24.26775 | -50.83592 | 38059 ft | 437 kts | 225° |
| 2026-04-27 14:47 | -24.31604 | -50.87627 | 38062 ft | 436 kts | 225° |
| 2026-04-27 14:48 | -24.36425 | -50.91658 | 38065 ft | 435 kts | 226° |
| 2026-04-27 14:48 | -24.43647 | -50.97704 | 38066 ft | 434 kts | 226° |
| 2026-04-27 14:49 | -24.48443 | -51.01724 | 38078 ft | 433 kts | 226° |
| 2026-04-27 14:49 | -24.53203 | -51.05718 | 38076 ft | 433 kts | 226° |
| 2026-04-27 14:50 | -24.57982 | -51.09733 | 38072 ft | 432 kts | 226° |
| 2026-04-27 14:50 | -24.62764 | -51.13754 | 38069 ft | 432 kts | 226° |
| 2026-04-27 14:51 | -24.67539 | -51.17773 | 38064 ft | 432 kts | 226° |
| 2026-04-27 14:51 | -24.72308 | -51.21790 | 38068 ft | 431 kts | 226° |
| 2026-04-27 14:52 | -24.77065 | -51.25800 | 38077 ft | 430 kts | 226° |
| 2026-04-27 14:52 | -24.81813 | -51.29809 | 38080 ft | 430 kts | 227° |
| 2026-04-27 14:53 | -24.86536 | -51.33800 | 38056 ft | 429 kts | 227° |
| 2026-04-27 14:53 | -24.91270 | -51.37803 | 38069 ft | 429 kts | 227° |
| 2026-04-27 14:54 | -24.96001 | -51.41809 | 38085 ft | 428 kts | 227° |
| 2026-04-27 14:54 | -25.00721 | -51.45810 | 38079 ft | 428 kts | 227° |
| 2026-04-27 14:55 | -25.05435 | -51.49809 | 38078 ft | 427 kts | 227° |
| 2026-04-27 14:55 | -25.10143 | -51.53807 | 38087 ft | 426 kts | 227° |
| 2026-04-27 14:56 | -25.14832 | -51.57793 | 38095 ft | 425 kts | 227° |
| 2026-04-27 14:56 | -25.19532 | -51.61692 | 38094 ft | 427 kts | 225° |
| 2026-04-27 14:57 | -25.24402 | -51.65462 | 38095 ft | 427 kts | 224° |
| 2026-04-27 14:57 | -25.29271 | -51.69206 | 38094 ft | 426 kts | 225° |
| 2026-04-27 14:58 | -25.34111 | -51.72962 | 38092 ft | 425 kts | 225° |
| 2026-04-27 14:58 | -25.38933 | -51.76728 | 38105 ft | 423 kts | 225° |
| 2026-04-27 14:59 | -25.43741 | -51.80493 | 38109 ft | 423 kts | 225° |
| 2026-04-27 14:59 | -25.48503 | -51.84227 | 38099 ft | 422 kts | 225° |
| 2026-04-27 15:00 | -25.53286 | -51.87980 | 38107 ft | 421 kts | 225° |
| 2026-04-27 15:00 | -25.58067 | -51.91736 | 38109 ft | 421 kts | 225° |
| 2026-04-27 15:01 | -25.62842 | -51.95490 | 38104 ft | 420 kts | 225° |
| 2026-04-27 15:01 | -25.67609 | -51.99242 | 38104 ft | 420 kts | 225° |
| 2026-04-27 15:02 | -25.72369 | -52.02991 | 38106 ft | 419 kts | 226° |
| 2026-04-27 15:02 | -25.77125 | -52.06741 | 38115 ft | 419 kts | 226° |
| 2026-04-27 15:03 | -25.81884 | -52.10498 | 38124 ft | 419 kts | 226° |
| 2026-04-27 15:03 | -25.86640 | -52.14257 | 38101 ft | 420 kts | 226° |
| 2026-04-27 15:04 | -25.91370 | -52.17997 | 38113 ft | 419 kts | 226° |
| 2026-04-27 15:04 | -25.96152 | -52.21783 | 38120 ft | 419 kts | 226° |
| 2026-04-27 15:05 | -26.00901 | -52.25546 | 38113 ft | 419 kts | 226° |
| 2026-04-27 15:05 | -26.05644 | -52.29309 | 38120 ft | 419 kts | 226° |
| 2026-04-27 15:06 | -26.10384 | -52.33073 | 38123 ft | 418 kts | 226° |
| 2026-04-27 15:06 | -26.15093 | -52.36817 | 38118 ft | 418 kts | 227° |
| 2026-04-27 15:07 | -26.19825 | -52.40582 | 38121 ft | 418 kts | 227° |
| 2026-04-27 15:07 | -26.24552 | -52.44347 | 38126 ft | 418 kts | 227° |
| 2026-04-27 15:08 | -26.29274 | -52.48112 | 38120 ft | 417 kts | 227° |
| 2026-04-27 15:08 | -26.33985 | -52.51871 | 38133 ft | 416 kts | 227° |
| 2026-04-27 15:09 | -26.38687 | -52.55628 | 38125 ft | 415 kts | 227° |
| 2026-04-27 15:09 | -26.43376 | -52.59378 | 38125 ft | 414 kts | 227° |
| 2026-04-27 15:10 | -26.48046 | -52.63117 | 38122 ft | 413 kts | 227° |
| 2026-04-27 15:10 | -26.52703 | -52.66850 | 38113 ft | 412 kts | 227° |
| 2026-04-27 15:11 | -26.57345 | -52.70572 | 38151 ft | 410 kts | 227° |
| 2026-04-27 15:11 | -26.61964 | -52.74281 | 38127 ft | 408 kts | 228° |
| 2026-04-27 15:12 | -26.66564 | -52.77981 | 38136 ft | 407 kts | 228° |
| 2026-04-27 15:12 | -26.71164 | -52.81684 | 38136 ft | 407 kts | 228° |
| 2026-04-27 15:13 | -26.75763 | -52.85390 | 38144 ft | 408 kts | 228° |
| 2026-04-27 15:13 | -26.80365 | -52.89101 | 38155 ft | 408 kts | 228° |
| 2026-04-27 15:14 | -26.84944 | -52.92798 | 38136 ft | 409 kts | 228° |
| 2026-04-27 15:14 | -26.89563 | -52.96530 | 38142 ft | 409 kts | 228° |
| 2026-04-27 15:15 | -26.94175 | -53.00259 | 38136 ft | 408 kts | 228° |
| 2026-04-27 15:15 | -26.98770 | -53.03978 | 38135 ft | 407 kts | 229° |
| 2026-04-27 15:16 | -27.03353 | -53.07692 | 38146 ft | 405 kts | 229° |
| 2026-04-27 15:16 | -27.07918 | -53.11398 | 38134 ft | 404 kts | 229° |
| 2026-04-27 15:17 | -27.12465 | -53.15089 | 38140 ft | 402 kts | 229° |
| 2026-04-27 15:17 | -27.16989 | -53.18765 | 38128 ft | 400 kts | 229° |
| 2026-04-27 15:18 | -27.21485 | -53.22427 | 38151 ft | 399 kts | 229° |
| 2026-04-27 15:18 | -27.25982 | -53.26095 | 38138 ft | 400 kts | 229° |
| 2026-04-27 15:19 | -27.30483 | -53.29773 | 38139 ft | 400 kts | 229° |
| 2026-04-27 15:19 | -27.34960 | -53.33446 | 38149 ft | 401 kts | 229° |
| 2026-04-27 15:20 | -27.39486 | -53.37163 | 38154 ft | 402 kts | 229° |
| 2026-04-27 15:20 | -27.44013 | -53.40883 | 38148 ft | 403 kts | 229° |
| 2026-04-27 15:21 | -27.47775 | -53.43976 | 38155 ft | 403 kts | 230° |
| 2026-04-27 15:21 | -27.52301 | -53.47701 | 38164 ft | 402 kts | 230° |
| 2026-04-27 15:22 | -27.56807 | -53.51413 | 38156 ft | 401 kts | 230° |
| 2026-04-27 15:22 | -27.61299 | -53.55119 | 38157 ft | 400 kts | 230° |
| 2026-04-27 15:23 | -27.65780 | -53.58820 | 38165 ft | 399 kts | 230° |
| 2026-04-27 15:23 | -27.70257 | -53.62521 | 38164 ft | 398 kts | 230° |
| 2026-04-27 15:24 | -27.74689 | -53.66189 | 38159 ft | 397 kts | 230° |
| 2026-04-27 15:24 | -27.79143 | -53.69880 | 38160 ft | 397 kts | 230° |
| 2026-04-27 15:25 | -27.83597 | -53.73574 | 38161 ft | 397 kts | 230° |
| 2026-04-27 15:25 | -27.88044 | -53.77266 | 38171 ft | 397 kts | 230° |
| 2026-04-27 15:26 | -27.92496 | -53.80967 | 38171 ft | 397 kts | 230° |
| 2026-04-27 15:26 | -27.96945 | -53.84669 | 38174 ft | 397 kts | 230° |
| 2026-04-27 15:27 | -28.01396 | -53.88375 | 38176 ft | 397 kts | 230° |
| 2026-04-27 15:27 | -28.05846 | -53.92085 | 38162 ft | 397 kts | 230° |
| 2026-04-27 15:28 | -28.10288 | -53.95791 | 38161 ft | 397 kts | 230° |
| 2026-04-27 15:28 | -28.14695 | -53.99472 | 38184 ft | 396 kts | 230° |
| 2026-04-27 15:29 | -28.19126 | -54.03177 | 38178 ft | 396 kts | 230° |
| 2026-04-27 15:29 | -28.23559 | -54.06889 | 38167 ft | 396 kts | 230° |
| 2026-04-27 15:30 | -28.27983 | -54.10597 | 38165 ft | 395 kts | 230° |
| 2026-04-27 15:30 | -28.32405 | -54.14306 | 38156 ft | 394 kts | 231° |
| 2026-04-27 15:31 | -28.36810 | -54.18004 | 38167 ft | 393 kts | 231° |
| 2026-04-27 15:31 | -28.41206 | -54.21700 | 38162 ft | 392 kts | 231° |
| 2026-04-27 15:32 | -28.45585 | -54.25385 | 38169 ft | 391 kts | 231° |
| 2026-04-27 15:32 | -28.49956 | -54.29068 | 38172 ft | 390 kts | 231° |
| 2026-04-27 15:33 | -28.54283 | -54.32717 | 38182 ft | 390 kts | 231° |
| 2026-04-27 15:33 | -28.58637 | -54.36394 | 38186 ft | 389 kts | 231° |
| 2026-04-27 15:34 | -28.62978 | -54.40063 | 38188 ft | 389 kts | 231° |
| 2026-04-27 15:34 | -28.67314 | -54.43731 | 38180 ft | 388 kts | 231° |
| 2026-04-27 15:35 | -28.71645 | -54.47400 | 38184 ft | 387 kts | 231° |
| 2026-04-27 15:35 | -28.75963 | -54.51061 | 38191 ft | 387 kts | 231° |
| 2026-04-27 15:36 | -28.80280 | -54.54725 | 38188 ft | 386 kts | 231° |
| 2026-04-27 15:36 | -28.84587 | -54.58384 | 38185 ft | 386 kts | 231° |
| 2026-04-27 15:37 | -28.88888 | -54.62043 | 38180 ft | 385 kts | 231° |
| 2026-04-27 15:37 | -28.93160 | -54.65681 | 38182 ft | 385 kts | 231° |
| 2026-04-27 15:38 | -28.97453 | -54.69340 | 38181 ft | 385 kts | 232° |
| 2026-04-27 15:38 | -29.01742 | -54.73000 | 38186 ft | 385 kts | 232° |
| 2026-04-27 15:39 | -29.06029 | -54.76661 | 38190 ft | 385 kts | 232° |
| 2026-04-27 15:39 | -29.10315 | -54.80325 | 38179 ft | 384 kts | 232° |
| 2026-04-27 15:40 | -29.14594 | -54.83988 | 38190 ft | 384 kts | 232° |
| 2026-04-27 15:40 | -29.18872 | -54.87654 | 38191 ft | 383 kts | 232° |
| 2026-04-27 15:41 | -29.23136 | -54.91311 | 38204 ft | 383 kts | 232° |
| 2026-04-27 15:41 | -29.27402 | -54.94975 | 38186 ft | 383 kts | 232° |
| 2026-04-27 15:42 | -29.31668 | -54.98643 | 38187 ft | 383 kts | 232° |
| 2026-04-27 15:42 | -29.35931 | -55.02310 | 38188 ft | 383 kts | 232° |
| 2026-04-27 15:43 | -29.40161 | -55.05953 | 38186 ft | 382 kts | 232° |
| 2026-04-27 15:43 | -29.44401 | -55.09609 | 38196 ft | 381 kts | 232° |
| 2026-04-27 15:44 | -29.48636 | -55.13266 | 38193 ft | 381 kts | 232° |
| 2026-04-27 15:44 | -29.52871 | -55.16927 | 38187 ft | 380 kts | 232° |
| 2026-04-27 15:45 | -29.57097 | -55.20583 | 38182 ft | 380 kts | 232° |
| 2026-04-27 15:45 | -29.61321 | -55.24241 | 38182 ft | 380 kts | 232° |
| 2026-04-27 15:46 | -29.65541 | -55.27901 | 38186 ft | 379 kts | 232° |
| 2026-04-27 15:46 | -29.69754 | -55.31558 | 38187 ft | 379 kts | 232° |
| 2026-04-27 15:47 | -29.73938 | -55.35194 | 38174 ft | 379 kts | 232° |
| 2026-04-27 15:47 | -29.78146 | -55.38853 | 38185 ft | 379 kts | 232° |
| 2026-04-27 15:48 | -29.82359 | -55.42522 | 38183 ft | 379 kts | 232° |
| 2026-04-27 15:49 | -29.88676 | -55.48032 | 38184 ft | 380 kts | 232° |
| 2026-04-27 15:49 | -29.92891 | -55.51712 | 38191 ft | 380 kts | 232° |
| 2026-04-27 15:50 | -29.97109 | -55.55399 | 38186 ft | 381 kts | 232° |
| 2026-04-27 15:50 | -30.01334 | -55.59096 | 38176 ft | 381 kts | 232° |
| 2026-04-27 15:51 | -30.05531 | -55.62773 | 38180 ft | 382 kts | 232° |
| 2026-04-27 15:51 | -30.09756 | -55.66478 | 38180 ft | 382 kts | 232° |
| 2026-04-27 15:52 | -30.13995 | -55.70199 | 38174 ft | 382 kts | 232° |
| 2026-04-27 15:52 | -30.18234 | -55.73925 | 38173 ft | 382 kts | 232° |
| 2026-04-27 15:53 | -30.22472 | -55.77653 | 38181 ft | 382 kts | 232° |
| 2026-04-27 15:53 | -30.26707 | -55.81384 | 38183 ft | 383 kts | 232° |
| 2026-04-27 15:54 | -30.30945 | -55.85122 | 38174 ft | 383 kts | 232° |
| 2026-04-27 15:54 | -30.35186 | -55.88866 | 38178 ft | 384 kts | 232° |
| 2026-04-27 15:55 | -30.39407 | -55.92597 | 38179 ft | 384 kts | 232° |
| 2026-04-27 15:55 | -30.43654 | -55.96354 | 38175 ft | 384 kts | 232° |
| 2026-04-27 15:56 | -30.47903 | -56.00118 | 38173 ft | 385 kts | 231° |
| 2026-04-27 15:56 | -30.52153 | -56.03887 | 38179 ft | 385 kts | 231° |
| 2026-04-27 15:57 | -30.56410 | -56.07667 | 38177 ft | 385 kts | 231° |
| 2026-04-27 15:57 | -30.60666 | -56.11451 | 38172 ft | 385 kts | 231° |
| 2026-04-27 15:58 | -30.64928 | -56.15243 | 38178 ft | 386 kts | 231° |
| 2026-04-27 15:58 | -30.69271 | -56.18956 | 38180 ft | 390 kts | 229° |
| 2026-04-27 15:59 | -30.73748 | -56.22539 | 38176 ft | 391 kts | 228° |
| 2026-04-27 15:59 | -30.78233 | -56.26128 | 38169 ft | 391 kts | 228° |
| 2026-04-27 16:00 | -30.82693 | -56.29728 | 38178 ft | 391 kts | 228° |
| 2026-04-27 16:00 | -30.87152 | -56.33348 | 38178 ft | 391 kts | 228° |
| 2026-04-27 16:01 | -30.91585 | -56.36954 | 38187 ft | 391 kts | 228° |
| 2026-04-27 16:01 | -30.96042 | -56.40585 | 38177 ft | 391 kts | 228° |
| 2026-04-27 16:02 | -31.00504 | -56.44223 | 38183 ft | 391 kts | 228° |
| 2026-04-27 16:02 | -31.04960 | -56.47861 | 38192 ft | 391 kts | 228° |
| 2026-04-27 16:03 | -31.09429 | -56.51516 | 38191 ft | 393 kts | 227° |
| 2026-04-27 16:03 | -31.13909 | -56.55184 | 38188 ft | 394 kts | 227° |
| 2026-04-27 16:04 | -31.18408 | -56.58870 | 38182 ft | 395 kts | 227° |
| 2026-04-27 16:04 | -31.22912 | -56.62564 | 38177 ft | 395 kts | 227° |
| 2026-04-27 16:05 | -31.27413 | -56.66260 | 38170 ft | 396 kts | 227° |
| 2026-04-27 16:05 | -31.31884 | -56.69936 | 38179 ft | 395 kts | 227° |
| 2026-04-27 16:06 | -31.36389 | -56.73644 | 38180 ft | 395 kts | 227° |
| 2026-04-27 16:06 | -31.40886 | -56.77351 | 38174 ft | 395 kts | 227° |
| 2026-04-27 16:07 | -31.45382 | -56.81061 | 38175 ft | 395 kts | 227° |
| 2026-04-27 16:07 | -31.49863 | -56.84762 | 38175 ft | 394 kts | 227° |
| 2026-04-27 16:08 | -31.54347 | -56.88472 | 38185 ft | 394 kts | 227° |
| 2026-04-27 16:08 | -31.58071 | -56.91557 | 38180 ft | 394 kts | 227° |
| 2026-04-27 16:09 | -31.62553 | -56.95273 | 38181 ft | 395 kts | 226° |
| 2026-04-27 16:09 | -31.70011 | -57.01467 | 38179 ft | 395 kts | 226° |
| 2026-04-27 16:10 | -31.78255 | -57.08257 | 38179 ft | 400 kts | 222° |
| 2026-04-27 16:11 | -31.80758 | -57.09785 | 38174 ft | 412 kts | 214° |
| 2026-04-27 16:11 | -31.86103 | -57.12300 | 38174 ft | 413 kts | 213° |
| 2026-04-27 16:12 | -31.94090 | -57.16105 | 38176 ft | 413 kts | 213° |
| 2026-04-27 16:13 | -32.02138 | -57.19787 | 38168 ft | 413 kts | 213° |
| 2026-04-27 16:13 | -32.10132 | -57.23449 | 38174 ft | 413 kts | 213° |
| 2026-04-27 16:14 | -32.20821 | -57.28380 | 38162 ft | 412 kts | 213° |
| 2026-04-27 16:15 | -32.31500 | -57.33320 | 38165 ft | 411 kts | 212° |
| 2026-04-27 16:16 | -32.42164 | -57.38267 | 38155 ft | 412 kts | 212° |
| 2026-04-27 16:17 | -32.52795 | -57.43210 | 38160 ft | 411 kts | 212° |
| 2026-04-27 16:18 | -32.63464 | -57.48184 | 38154 ft | 412 kts | 212° |
| 2026-04-27 16:19 | -32.68798 | -57.50676 | 38155 ft | 412 kts | 212° |
| 2026-04-27 16:20 | -32.76810 | -57.54425 | 37900 ft | 417 kts | 212° |
| 2026-04-27 16:20 | -32.79515 | -57.55695 | 37425 ft | 417 kts | 211° |
| 2026-04-27 16:20 | -32.84866 | -57.58196 | 36538 ft | 408 kts | 211° |
| 2026-04-27 16:21 | -32.87492 | -57.59424 | 36124 ft | 404 kts | 211° |
| 2026-04-27 16:21 | -32.95198 | -57.63042 | 34888 ft | 394 kts | 211° |
| 2026-04-27 16:22 | -32.97773 | -57.64254 | 34460 ft | 391 kts | 210° |
| 2026-04-27 16:22 | -33.02766 | -57.66608 | 33575 ft | 386 kts | 210° |
| 2026-04-27 16:22 | -33.05253 | -57.67780 | 33129 ft | 382 kts | 210° |
| 2026-04-27 16:23 | -33.07718 | -57.68943 | 32700 ft | 379 kts | 210° |
| 2026-04-27 16:23 | -33.12573 | -57.71234 | 31897 ft | 372 kts | 211° |
| 2026-04-27 16:23 | -33.14976 | -57.72370 | 31492 ft | 370 kts | 210° |
| 2026-04-27 16:24 | -33.17360 | -57.73498 | 31093 ft | 367 kts | 210° |
| 2026-04-27 16:24 | -33.22081 | -57.75733 | 30286 ft | 363 kts | 210° |
| 2026-04-27 16:25 | -33.26735 | -57.77938 | 29400 ft | 357 kts | 210° |
| 2026-04-27 16:25 | -33.31275 | -57.80091 | 28561 ft | 350 kts | 210° |
| 2026-04-27 16:26 | -33.35757 | -57.82220 | 27735 ft | 343 kts | 210° |
| 2026-04-27 16:26 | -33.40156 | -57.84312 | 26934 ft | 337 kts | 210° |
| 2026-04-27 16:27 | -33.44491 | -57.86377 | 26144 ft | 332 kts | 211° |
| 2026-04-27 16:27 | -33.50870 | -57.89418 | 24965 ft | 326 kts | 211° |
| 2026-04-27 16:28 | -33.55075 | -57.91421 | 24125 ft | 325 kts | 211° |
| 2026-04-27 16:28 | -33.59263 | -57.93409 | 23300 ft | 321 kts | 211° |
| 2026-04-27 16:29 | -33.65598 | -57.95521 | 21995 ft | 311 kts | 201° |
| 2026-04-27 16:30 | -33.69814 | -57.96463 | 20772 ft | 308 kts | 201° |
| 2026-04-27 16:30 | -33.73985 | -57.97407 | 19672 ft | 302 kts | 201° |
| 2026-04-27 16:31 | -33.80103 | -57.98815 | 18027 ft | 294 kts | 201° |
| 2026-04-27 16:31 | -33.84090 | -57.99739 | 16873 ft | 289 kts | 201° |
| 2026-04-27 16:32 | -33.88016 | -58.00652 | 15776 ft | 285 kts | 201° |
| 2026-04-27 16:32 | -33.89951 | -58.01102 | 15332 ft | 280 kts | 201° |
| 2026-04-27 16:33 | -33.93773 | -58.01994 | 14647 ft | 279 kts | 201° |
| 2026-04-27 16:33 | -33.95680 | -58.02440 | 14315 ft | 279 kts | 201° |
| 2026-04-27 16:33 | -33.97582 | -58.02885 | 13980 ft | 278 kts | 201° |
| 2026-04-27 16:33 | -33.99479 | -58.03329 | 13619 ft | 278 kts | 200° |
| 2026-04-27 16:34 | -34.01374 | -58.03771 | 13267 ft | 277 kts | 200° |
| 2026-04-27 16:34 | -34.03263 | -58.04213 | 12923 ft | 275 kts | 200° |
| 2026-04-27 16:34 | -34.05137 | -58.04650 | 12600 ft | 274 kts | 200° |
| 2026-04-27 16:34 | -34.06976 | -58.05080 | 12273 ft | 273 kts | 200° |
| 2026-04-27 16:35 | -34.08835 | -58.05515 | 11952 ft | 272 kts | 200° |
| 2026-04-27 16:35 | -34.10686 | -58.05949 | 11628 ft | 271 kts | 200° |
| 2026-04-27 16:35 | -34.14385 | -58.06816 | 10991 ft | 270 kts | 200° |
| 2026-04-27 16:36 | -34.16228 | -58.07248 | 10670 ft | 270 kts | 200° |
| 2026-04-27 16:36 | -34.18065 | -58.07682 | 10261 ft | 269 kts | 194° |
| 2026-04-27 16:36 | -34.19867 | -58.08107 | 10197 ft | 258 kts | 195° |
| 2026-04-27 16:36 | -34.21608 | -58.08513 | 10034 ft | 253 kts | 195° |
| 2026-04-27 16:37 | -34.23334 | -58.08917 | 9720 ft | 252 kts | 195° |
| 2026-04-27 16:37 | -34.25048 | -58.09319 | 9433 ft | 250 kts | 194° |
| 2026-04-27 16:37 | -34.26751 | -58.09719 | 9159 ft | 249 kts | 194° |
| 2026-04-27 16:37 | -34.28448 | -58.10118 | 8879 ft | 248 kts | 194° |
| 2026-04-27 16:38 | -34.30136 | -58.10515 | 8596 ft | 246 kts | 194° |
| 2026-04-27 16:38 | -34.31797 | -58.10906 | 8323 ft | 245 kts | 194° |
| 2026-04-27 16:38 | -34.33467 | -58.11299 | 8051 ft | 244 kts | 194° |
| 2026-04-27 16:38 | -34.35134 | -58.11692 | 7777 ft | 243 kts | 193° |
| 2026-04-27 16:39 | -34.36792 | -58.12082 | 7508 ft | 242 kts | 193° |
| 2026-04-27 16:39 | -34.38446 | -58.12472 | 7243 ft | 242 kts | 193° |
| 2026-04-27 16:39 | -34.40095 | -58.12861 | 6969 ft | 240 kts | 193° |
| 2026-04-27 16:39 | -34.41731 | -58.13247 | 6710 ft | 239 kts | 193° |
| 2026-04-27 16:40 | -34.43364 | -58.13632 | 6446 ft | 238 kts | 193° |
| 2026-04-27 16:40 | -34.44991 | -58.14016 | 6157 ft | 237 kts | 193° |
| 2026-04-27 16:40 | -34.46609 | -58.14397 | 5879 ft | 236 kts | 193° |
| 2026-04-27 16:40 | -34.48216 | -58.14777 | 5620 ft | 234 kts | 193° |
| 2026-04-27 16:41 | -34.49810 | -58.15154 | 5359 ft | 233 kts | 193° |
| 2026-04-27 16:41 | -34.51395 | -58.15528 | 5098 ft | 232 kts | 193° |
| 2026-04-27 16:41 | -34.52975 | -58.15902 | 4832 ft | 231 kts | 193° |
| 2026-04-27 16:41 | -34.54539 | -58.16272 | 4654 ft | 225 kts | 193° |
| 2026-04-27 16:42 | -34.56027 | -58.16623 | 4543 ft | 217 kts | 193° |
| 2026-04-27 16:42 | -34.57478 | -58.16966 | 4438 ft | 208 kts | 193° |
| 2026-04-27 16:42 | -34.58870 | -58.17304 | 4346 ft | 199 kts | 197° |
| 2026-04-27 16:42 | -34.60075 | -58.18103 | 4211 ft | 200 kts | 219° |
| 2026-04-27 16:43 | -34.61163 | -58.19192 | 4034 ft | 208 kts | 219° |
| 2026-04-27 16:43 | -34.62276 | -58.20285 | 3833 ft | 203 kts | 219° |
| 2026-04-27 16:43 | -34.63351 | -58.21340 | 3568 ft | 193 kts | 219° |
| 2026-04-27 16:43 | -34.64358 | -58.22351 | 3300 ft | 183 kts | 225° |
| 2026-04-27 16:44 | -34.64930 | -58.23671 | 3071 ft | 175 kts | 256° |
| 2026-04-27 16:44 | -34.64895 | -58.25107 | 2889 ft | 170 kts | 281° |
| 2026-04-27 16:44 | -34.64359 | -58.26360 | 2700 ft | 164 kts | 299° |
| 2026-04-27 16:44 | -34.63745 | -58.27467 | 2548 ft | 151 kts | 297° |
| 2026-04-27 16:45 | -34.63178 | -58.28499 | 2369 ft | 145 kts | 297° |
| 2026-04-27 16:45 | -34.62623 | -58.29509 | 2176 ft | 143 kts | 298° |
| 2026-04-27 16:45 | -34.62071 | -58.30508 | 1992 ft | 141 kts | 298° |
| 2026-04-27 16:45 | -34.61526 | -58.31492 | 1802 ft | 140 kts | 298° |
| 2026-04-27 16:46 | -34.60981 | -58.32477 | 1629 ft | 141 kts | 297° |
| 2026-04-27 16:46 | -34.60438 | -58.33460 | 1440 ft | 139 kts | 298° |
| 2026-04-27 16:46 | -34.59897 | -58.34437 | 1255 ft | 140 kts | 298° |
| 2026-04-27 16:46 | -34.59352 | -58.35416 | 1082 ft | 139 kts | 298° |
| 2026-04-27 16:47 | -34.58813 | -58.36387 | 880 ft | 137 kts | 300° |
| 2026-04-27 16:47 | -34.58277 | -58.37352 | 712 ft | 143 kts | 302° |
| 2026-04-27 16:47 | -34.57712 | -58.38369 | 512 ft | 147 kts | 302° |